Погода Исачкина 2 недели

Витебская область, Белоруссия

23 мая-05 июня
  • 23мая
    Сегодня
    +12°
    +24°
    Практически безоблачно
    ВремяПогодаТемператураВлажностьДавлениеВетер, м/сВероятность осадков
    00:00Ясно и безоблачно+15°C92 %756 мм2.4 м/с2 %
    03:00Практически безоблачно+14°C94 %756 мм3.1 м/с2 %
    06:00Ясно и безоблачно+13°C92 %756 мм3.9 м/с2 %
    09:00Ясно и безоблачно+19°C77 %757 мм4.3 м/с2 %
    12:00Ясно и безоблачно+22°C58 %758 мм4.5 м/с5 %
    15:00Практически безоблачно+24°C44 %758 мм6.1 м/с3 %
    18:00Облачно с прояснениями+23°C51 %758 мм4.7 м/с20 %
    21:00Облачно с прояснениями+20°C64 %758 мм2.8 м/с4 %
  • 24мая
    Пятница
    +11°
    +24°
    Ясно и безоблачно
    ВремяПогодаТемператураВлажностьДавлениеВетер, м/сВероятность осадков
    00:00Облачно с прояснениями+17°C57 %759 мм4.2 м/с2 %
    03:00Небольшая облачность+14°C60 %760 мм4.2 м/с2 %
    06:00Ясно и безоблачно+13°C67 %761 мм4.0 м/с2 %
    09:00Ясно и безоблачно+17°C58 %761 мм4.3 м/с2 %
    12:00Ясно и безоблачно+22°C48 %761 мм4.6 м/с2 %
    15:00Ясно и безоблачно+23°C43 %761 мм4.5 м/с2 %
    18:00Ясно и безоблачно+23°C44 %760 мм4.2 м/с2 %
    21:00Ясно и безоблачно+19°C56 %760 мм3.5 м/с2 %
  • 25мая
    Суббота
    +12°
    +25°
    Ясно и безоблачно
    ВремяПогодаТемператураВлажностьДавлениеВетер, м/сВероятность осадков
    00:00Ясно и безоблачно+15°C63 %760 мм3.6 м/с2 %
    03:00Ясно и безоблачно+13°C71 %760 мм2.7 м/с2 %
    06:00Ясно и безоблачно+12°C76 %760 мм2.7 м/с2 %
    09:00Ясно и безоблачно+18°C63 %760 мм2.7 м/с2 %
    12:00Ясно и безоблачно+23°C48 %760 мм3.0 м/с2 %
    15:00Ясно и безоблачно+25°C41 %759 мм3.1 м/с4 %
    18:00Ясно и безоблачно+24°C42 %758 мм3.0 м/с11 %
    21:00Ясно и безоблачно+19°C68 %758 мм2.1 м/с4 %
  • 26мая
    Воскресенье
    +11°
    +25°
    Практически безоблачно
    ВремяПогодаТемператураВлажностьДавлениеВетер, м/сВероятность осадков
    00:00Ясно и безоблачно+14°C75 %758 мм2.1 м/с2 %
    03:00Ясно и безоблачно+13°C86 %759 мм2.2 м/с2 %
    06:00Ясно и безоблачно+13°C84 %759 мм1.2 м/с2 %
    09:00Ясно и безоблачно+19°C57 %760 мм0.5 м/с2 %
    12:00Ясно и безоблачно+24°C41 %760 мм0.9 м/с2 %
    15:00Практически безоблачно+25°C35 %759 мм1.1 м/с5 %
    18:00Небольшая облачность+25°C37 %758 мм2.0 м/с5 %
    21:00Практически безоблачно+19°C63 %759 мм2.0 м/с2 %
  • 27мая
    Понедельник
    +12°
    +26°
    Небольшая облачность
    ВремяПогодаТемператураВлажностьДавлениеВетер, м/сВероятность осадков
    00:00Ясно и безоблачно+14°C75 %759 мм2.4 м/с2 %
    03:00Небольшая облачность+14°C78 %759 мм2.3 м/с2 %
    06:00Ясно и безоблачно+14°C76 %760 мм1.4 м/с2 %
    09:00Ясно и безоблачно+20°C61 %760 мм0.5 м/с2 %
    12:00Практически безоблачно+25°C37 %760 мм1.5 м/с16 %
    15:00Небольшая облачность+26°C36 %760 мм1.3 м/с25 %
    18:00Практически безоблачно+25°C39 %759 мм1.6 м/с30 %
    21:00Практически безоблачно+21°C58 %759 мм3.1 м/с6 %
Мы используем cookies
Соглашаюсь